This is the latest recevied weather packets stored in our database for station/object SP9INZ-13. If no packets are shown the sender has not sent any weather packets the latest 10 day(s).
| Time | Temp. | Humidity | Pressure | Rain* | Wind** | Luminosity | Snow |
|---|---|---|---|---|---|---|---|
| 1777990618 | 27.78° C | 20% | 1008.6 hPa | - | - | - | - |
| 1777989659 | 28.89° C | 19% | 1008.1 hPa | - | - | - | - |
| 1777988701 | 28.33° C | 20% | 1008.7 hPa | - | - | - | - |
| 1777987743 | 27.78° C | 20% | 1009.2 hPa | - | - | - | - |
| 1777986785 | 27.22° C | 19% | 1009.5 hPa | - | - | - | - |
| 1777985827 | 27.78° C | 20% | 1009.5 hPa | - | - | - | - |
| 1777984870 | 28.33° C | 19% | 1009.3 hPa | - | - | - | - |
| 1777983912 | 27.78° C | 22% | 1009.4 hPa | - | - | - | - |
| 1777982953 | 26.67° C | 22% | 1010.1 hPa | - | - | - | - |
| 1777981995 | 26.11° C | 22% | 1010.3 hPa | - | - | - | - |
| 1777981036 | 26.67° C | 22% | 1010.2 hPa | - | - | - | - |
| 1777980133 | 26.11° C | 21% | 1010.8 hPa | - | - | - | - |
| 1777980080 | 26.11° C | 21% | 1010.8 hPa | - | - | - | - |
| 1777979121 | 27.78° C | 19% | 1010.1 hPa | - | - | - | - |
| 1777978162 | 26.67° C | 22% | 1010.4 hPa | - | - | - | - |
| 1777977205 | 26.67° C | 22% | 1010.5 hPa | - | - | - | - |
| 1777976495 | 26.67° C | 26% | 1009.8 hPa | - | - | - | - |
| 1777976248 | 26.67° C | 26% | 1009.8 hPa | - | - | - | - |
| 1777975290 | 26.11° C | 27% | 1010.3 hPa | - | - | - | - |
| 1777974332 | 26.11° C | 28% | 1010.4 hPa | - | - | - | - |
| 1777973535 | 25° C | 29% | 1010.9 hPa | - | - | - | - |
| 1777973374 | 25° C | 29% | 1010.9 hPa | - | - | - | - |
| 1777972418 | 25° C | 30% | 1010.9 hPa | - | - | - | - |
| 1777971458 | 23.89° C | 31% | 1011.5 hPa | - | - | - | - |
| 1777970500 | 24.44° C | 31% | 1011.7 hPa | - | - | - | - |
* Rain since midnight (hover to see other rain measurements)
** Current wind speed in m/s (hover to see current wind gust speed)